createdAt,value
2024-03-14T00:01:09.908Z,54.27
2024-03-14T00:03:38.310Z,54.30
2024-03-14T00:06:05.110Z,54.30
2024-03-14T00:08:31.685Z,54.22
2024-03-14T00:10:58.192Z,54.41
2024-03-14T00:13:25.859Z,54.56
2024-03-14T00:15:52.406Z,54.15
2024-03-14T00:18:19.923Z,54.94
2024-03-14T00:20:46.526Z,54.89
2024-03-14T00:23:13.257Z,55.46
2024-03-14T00:25:41.816Z,56.19
2024-03-14T00:28:11.180Z,57.40
2024-03-14T00:30:37.773Z,57.05
2024-03-14T00:33:05.578Z,57.40
2024-03-14T00:35:32.275Z,56.52
2024-03-14T00:37:59.517Z,56.45
2024-03-14T00:40:26.708Z,55.66
2024-03-14T00:42:53.658Z,55.47
2024-03-14T00:45:20.488Z,55.11
2024-03-14T00:47:47.430Z,55.03
2024-03-14T00:50:14.357Z,54.32
2024-03-14T00:52:41.278Z,53.46
2024-03-14T00:55:10.205Z,52.73
2024-03-14T00:57:38.093Z,53.60
2024-03-14T01:00:14.839Z,54.51
2024-03-14T01:02:42.646Z,52.49
2024-03-14T01:05:10.094Z,52.81
2024-03-14T01:07:36.658Z,53.48
2024-03-14T01:10:06.017Z,53.51
2024-03-14T01:12:32.887Z,53.26
2024-03-14T01:14:59.656Z,54.17
2024-03-14T01:17:26.134Z,54.42
2024-03-14T01:20:12.849Z,55.69
2024-03-14T01:22:39.342Z,54.38
2024-03-14T01:25:07.028Z,54.59
2024-03-14T01:27:33.755Z,54.39
2024-03-14T01:30:00.616Z,54.41
2024-03-14T01:32:27.248Z,54.12
2024-03-14T01:34:54.012Z,53.46
2024-03-14T01:37:23.139Z,52.43
2024-03-14T01:39:51.478Z,52.19
2024-03-14T01:42:18.265Z,52.77
2024-03-14T01:44:54.133Z,54.17
2024-03-14T01:47:22.859Z,52.96
2024-03-14T01:49:51.638Z,52.84
2024-03-14T01:52:21.232Z,52.98
2024-03-14T01:54:50.925Z,52.55
2024-03-14T01:57:18.617Z,52.45
2024-03-14T01:59:50.996Z,52.42
2024-03-14T02:02:18.915Z,53.29
2024-03-14T02:04:48.779Z,54.07
2024-03-14T02:07:18.977Z,54.43
2024-03-14T02:09:48.511Z,53.43
2024-03-14T02:12:15.210Z,53.67
2024-03-14T02:14:42.180Z,53.58
2024-03-14T02:17:08.940Z,56.18
2024-03-14T02:19:35.422Z,56.35
2024-03-14T02:22:02.474Z,59.07
2024-03-14T02:24:29.236Z,57.20
2024-03-14T02:27:00.610Z,56.62
2024-03-14T02:29:27.610Z,57.82
2024-03-14T02:31:54.056Z,59.61
2024-03-14T02:34:20.757Z,60.58
2024-03-14T02:36:47.532Z,60.02
2024-03-14T02:39:17.273Z,59.69
2024-03-14T02:41:43.802Z,59.71
2024-03-14T02:44:17.878Z,58.60
2024-03-14T02:46:54.549Z,58.63
2024-03-14T02:49:21.972Z,57.71
2024-03-14T02:51:48.639Z,58.29
2024-03-14T02:54:16.710Z,57.57
2024-03-14T02:56:51.596Z,58.13
2024-03-14T02:59:18.668Z,57.43
2024-03-14T03:01:45.292Z,58.12
2024-03-14T03:04:12.424Z,57.38
2024-03-14T03:06:59.265Z,57.01
2024-03-14T03:09:28.812Z,56.99
2024-03-14T03:11:55.501Z,57.35
2024-03-14T03:14:22.804Z,57.40
2024-03-14T03:16:49.337Z,57.76
2024-03-14T03:19:16.125Z,57.56
2024-03-14T03:21:42.652Z,57.73
2024-03-14T03:24:09.506Z,58.15
2024-03-14T03:26:36.589Z,58.19
2024-03-14T03:29:03.221Z,58.26
2024-03-14T03:31:30.379Z,58.26
2024-03-14T03:33:57.843Z,59.24
2024-03-14T03:36:24.676Z,59.51
2024-03-14T03:38:51.384Z,59.19
2024-03-14T03:41:17.964Z,59.36
2024-03-14T03:43:47.346Z,60.47
2024-03-14T03:46:13.829Z,62.42
2024-03-14T03:48:40.459Z,62.13
2024-03-14T03:51:07.099Z,61.89
2024-03-14T03:53:33.741Z,62.34
2024-03-14T03:56:06.597Z,62.03
2024-03-14T03:58:34.240Z,60.71
2024-03-14T04:01:08.376Z,63.84
2024-03-14T04:03:37.687Z,62.58
2024-03-14T04:06:04.425Z,62.79
2024-03-14T04:08:31.924Z,62.81
2024-03-14T04:10:58.465Z,63.98
2024-03-14T04:13:25.052Z,63.17
2024-03-14T04:15:51.641Z,63.27
2024-03-14T04:18:18.237Z,61.56
2024-03-14T04:20:44.953Z,62.11
2024-03-14T04:23:11.666Z,62.56
2024-03-14T04:25:38.599Z,62.21
2024-03-14T04:28:08.595Z,60.89
2024-03-14T04:30:35.203Z,61.80
2024-03-14T04:33:01.898Z,60.78
2024-03-14T04:35:28.502Z,62.18
2024-03-14T04:37:55.115Z,61.69
2024-03-14T04:40:22.608Z,61.23
2024-03-14T04:42:55.727Z,60.80
2024-03-14T04:45:23.241Z,62.20
2024-03-14T04:47:50.220Z,61.60
2024-03-14T04:50:20.199Z,61.93
2024-03-14T04:52:47.087Z,61.78
2024-03-14T04:55:14.040Z,62.12
2024-03-14T04:57:44.981Z,60.24
2024-03-14T05:00:21.296Z,59.82
2024-03-14T05:02:52.594Z,60.09
2024-03-14T05:05:22.085Z,60.42
2024-03-14T05:07:49.615Z,59.96
2024-03-14T05:10:20.081Z,60.37
2024-03-14T05:12:47.424Z,61.34
2024-03-14T05:15:15.496Z,60.48
2024-03-14T05:17:43.407Z,61.11
2024-03-14T05:20:11.931Z,61.08
2024-03-14T05:22:39.589Z,60.48
2024-03-14T05:25:07.950Z,59.94
2024-03-14T05:30:05.140Z,61.87
2024-03-14T05:32:33.382Z,62.01
2024-03-14T05:35:01.669Z,61.29
2024-03-14T05:37:28.892Z,60.46
2024-03-14T05:39:56.242Z,60.54
2024-03-14T05:42:23.348Z,60.18
2024-03-14T05:44:50.607Z,60.22
2024-03-14T05:47:17.253Z,59.83
2024-03-14T05:49:43.873Z,60.31
2024-03-14T05:52:11.508Z,62.10
2024-03-14T05:54:38.562Z,61.46
2024-03-14T05:57:05.269Z,60.95
2024-03-14T05:59:32.109Z,60.78
2024-03-14T06:01:59.077Z,61.08
2024-03-14T06:04:25.622Z,60.29
2024-03-14T06:06:52.089Z,59.60
2024-03-14T06:09:19.019Z,59.19
2024-03-14T06:11:45.720Z,59.39
2024-03-14T06:14:12.272Z,59.17
2024-03-14T06:16:38.786Z,58.77
2024-03-14T06:19:07.610Z,58.47
2024-03-14T06:21:41.404Z,57.38
2024-03-14T06:24:07.960Z,57.13
2024-03-14T06:26:38.192Z,56.60
2024-03-14T06:29:04.665Z,55.88
2024-03-14T06:31:31.117Z,55.46
2024-03-14T06:33:57.690Z,56.05
2024-03-14T06:36:25.257Z,55.09
2024-03-14T06:38:52.503Z,55.23
2024-03-14T06:41:20.345Z,54.51
2024-03-14T06:43:47.010Z,54.06
2024-03-14T06:46:16.713Z,53.79
2024-03-14T06:48:43.512Z,53.19
2024-03-14T06:51:11.698Z,52.18
2024-03-14T06:53:39.675Z,51.84
2024-03-14T06:56:10.033Z,51.24
2024-03-14T06:58:36.780Z,51.51
2024-03-14T07:01:03.355Z,50.01
2024-03-14T07:03:29.926Z,50.29
2024-03-14T07:05:59.165Z,50.50
2024-03-14T07:08:27.804Z,48.99
2024-03-14T07:10:54.646Z,47.78
2024-03-14T07:13:21.240Z,47.13
2024-03-14T07:15:49.124Z,47.31
2024-03-14T07:18:17.752Z,47.23
2024-03-14T07:20:47.064Z,46.60
2024-03-14T07:23:14.713Z,46.49
2024-03-14T07:25:42.453Z,45.92
2024-03-14T07:28:10.634Z,45.31
2024-03-14T07:30:37.243Z,46.07
2024-03-14T07:33:03.964Z,47.66
2024-03-14T07:35:30.476Z,48.28
2024-03-14T07:37:57.312Z,46.88
2024-03-14T07:40:33.959Z,45.66
2024-03-14T07:43:00.886Z,44.07
2024-03-14T07:45:27.835Z,44.96
2024-03-14T07:48:19.185Z,45.07
2024-03-14T07:50:52.264Z,44.96
2024-03-14T07:53:20.446Z,45.68
2024-03-14T07:55:47.204Z,44.40
2024-03-14T07:58:13.680Z,43.81
2024-03-14T08:00:40.202Z,44.20
2024-03-14T08:03:06.700Z,43.14
2024-03-14T08:05:35.416Z,43.58
2024-03-14T08:08:13.904Z,44.45
2024-03-14T08:10:48.009Z,42.72
2024-03-14T08:13:21.520Z,42.31
2024-03-14T08:15:54.391Z,44.04
2024-03-14T08:18:22.855Z,42.83
2024-03-14T08:20:49.594Z,42.52
2024-03-14T08:23:16.836Z,42.64
2024-03-14T08:25:43.762Z,41.58
2024-03-14T08:28:10.268Z,40.76
2024-03-14T08:30:38.820Z,40.31
2024-03-14T08:33:05.999Z,40.65
2024-03-14T08:35:34.536Z,42.04
2024-03-14T08:38:01.254Z,39.34
2024-03-14T08:40:28.118Z,40.11
2024-03-14T08:42:54.630Z,40.94
2024-03-14T08:45:21.538Z,39.42
2024-03-14T08:47:48.727Z,37.59
2024-03-14T08:50:16.773Z,40.41
2024-03-14T08:52:43.848Z,39.93
2024-03-14T08:55:26.657Z,39.98
2024-03-14T08:57:53.581Z,40.04
2024-03-14T09:00:23.322Z,40.85
2024-03-14T09:02:50.918Z,39.57
2024-03-14T09:05:17.935Z,40.64
2024-03-14T09:07:47.077Z,40.11
2024-03-14T09:10:29.526Z,41.02
2024-03-14T09:12:56.760Z,39.52
2024-03-14T09:15:25.566Z,39.61
2024-03-14T09:17:52.950Z,40.78
2024-03-14T09:20:22.624Z,41.63
2024-03-14T09:22:56.778Z,40.56
2024-03-14T09:25:25.155Z,43.05
2024-03-14T09:27:54.617Z,43.61
2024-03-14T09:30:23.455Z,41.00
2024-03-14T09:32:51.778Z,43.31
2024-03-14T09:35:26.814Z,41.45
2024-03-14T09:37:57.309Z,39.69
2024-03-14T09:40:40.011Z,42.91
2024-03-14T09:43:15.112Z,42.32
2024-03-14T09:45:43.670Z,45.88
2024-03-14T09:48:13.219Z,40.17
2024-03-14T09:50:40.010Z,40.42
2024-03-14T09:53:08.455Z,39.06
2024-03-14T09:55:37.041Z,43.13
2024-03-14T09:58:06.144Z,38.71
2024-03-14T10:00:32.990Z,40.35
2024-03-14T10:03:02.221Z,38.40
2024-03-14T10:05:29.734Z,39.46
2024-03-14T10:07:56.397Z,41.21
2024-03-14T10:10:24.442Z,36.95
2024-03-14T10:12:58.564Z,39.86
2024-03-14T10:15:26.835Z,40.25
2024-03-14T10:17:53.916Z,38.98
2024-03-14T10:20:21.729Z,41.62
2024-03-14T10:22:50.279Z,36.79
2024-03-14T10:25:18.634Z,41.18
2024-03-14T10:28:00.411Z,39.15
2024-03-14T10:30:35.215Z,39.07
2024-03-14T10:33:04.851Z,38.36
2024-03-14T10:35:33.898Z,40.98
2024-03-14T10:38:01.930Z,40.66
2024-03-14T10:40:31.819Z,39.65
2024-03-14T10:42:58.564Z,37.44
2024-03-14T10:45:28.530Z,37.57
2024-03-14T10:47:56.737Z,38.99
2024-03-14T10:50:23.852Z,36.37
2024-03-14T10:52:56.364Z,37.72
2024-03-14T10:55:46.703Z,37.23
2024-03-14T10:58:17.261Z,36.49
2024-03-14T11:00:45.475Z,39.58
2024-03-14T11:03:18.955Z,36.84
2024-03-14T11:05:52.990Z,40.21
2024-03-14T11:08:24.448Z,36.57
2024-03-14T11:10:56.481Z,37.72
2024-03-14T11:13:31.825Z,38.45
2024-03-14T11:16:00.402Z,35.64
2024-03-14T11:18:38.621Z,35.35
2024-03-14T11:21:07.541Z,39.07
2024-03-14T11:23:37.845Z,36.56
2024-03-14T11:26:13.796Z,35.83
2024-03-14T11:28:42.827Z,33.99
2024-03-14T11:31:09.383Z,37.40
2024-03-14T11:33:36.345Z,35.77
2024-03-14T11:36:05.656Z,34.14
2024-03-14T11:38:34.080Z,35.27
2024-03-14T11:41:04.680Z,37.96
2024-03-14T11:43:35.022Z,36.85
2024-03-14T11:46:24.641Z,34.50
2024-03-14T11:48:51.157Z,34.83
2024-03-14T11:51:20.179Z,36.45
2024-03-14T11:53:47.663Z,34.73
2024-03-14T11:56:15.265Z,33.85
2024-03-14T11:58:45.421Z,32.78
2024-03-14T12:01:21.603Z,36.17
2024-03-14T12:03:53.002Z,36.77
2024-03-14T12:06:19.869Z,33.01
2024-03-14T12:08:48.886Z,31.92
2024-03-14T12:11:15.839Z,32.51
2024-03-14T12:13:53.442Z,32.71
2024-03-14T12:16:20.659Z,32.55
2024-03-14T12:18:53.645Z,33.75
2024-03-14T12:21:20.754Z,32.27
2024-03-14T12:23:52.020Z,31.93
2024-03-14T12:26:19.466Z,33.22
2024-03-14T12:28:49.352Z,33.70
2024-03-14T12:31:18.770Z,33.16
2024-03-14T12:33:48.369Z,32.94
2024-03-14T12:36:18.873Z,33.59
2024-03-14T12:38:52.767Z,34.02
2024-03-14T12:41:19.986Z,32.55
2024-03-14T12:43:48.584Z,33.26
2024-03-14T12:46:18.834Z,32.46
2024-03-14T12:48:46.981Z,32.97
2024-03-14T12:51:18.305Z,33.43
2024-03-14T12:53:57.470Z,33.62
2024-03-14T12:56:25.729Z,34.06
2024-03-14T12:58:53.807Z,33.19
2024-03-14T13:01:20.525Z,33.53
2024-03-14T13:03:47.526Z,34.58
2024-03-14T13:06:24.927Z,33.73
2024-03-14T13:09:26.397Z,33.85
2024-03-14T13:12:23.466Z,33.82
2024-03-14T13:15:12.232Z,33.60
2024-03-14T13:17:39.782Z,33.16
2024-03-14T13:20:19.501Z,32.97
2024-03-14T13:22:49.286Z,33.28
2024-03-14T13:25:15.808Z,33.47
2024-03-14T13:27:42.381Z,32.69
2024-03-14T13:30:09.768Z,32.63
2024-03-14T13:32:38.510Z,33.03
2024-03-14T13:35:11.170Z,32.71
2024-03-14T13:37:37.830Z,32.22
2024-03-14T13:42:42.982Z,33.07
2024-03-14T13:45:09.674Z,36.13
2024-03-14T13:47:39.134Z,32.84
2024-03-14T13:50:10.833Z,32.92
2024-03-14T13:52:42.479Z,34.11
2024-03-14T13:55:26.288Z,34.04
2024-03-14T13:57:56.199Z,34.13
2024-03-14T14:00:30.781Z,36.29
2024-03-14T14:03:00.249Z,33.60
2024-03-14T14:05:26.798Z,34.99
2024-03-14T14:07:56.676Z,32.78
2024-03-14T14:10:24.146Z,33.48
2024-03-14T14:12:52.016Z,33.58
2024-03-14T14:15:19.429Z,33.93
2024-03-14T14:17:46.328Z,34.53
2024-03-14T14:20:18.402Z,33.80
2024-03-14T14:22:46.415Z,34.46
2024-03-14T14:25:15.965Z,33.18
2024-03-14T14:27:46.166Z,34.09
2024-03-14T14:30:22.703Z,33.37
2024-03-14T14:32:50.604Z,34.56
2024-03-14T14:35:17.545Z,34.95
2024-03-14T14:37:50.517Z,35.37
2024-03-14T14:40:17.551Z,35.14
2024-03-14T14:42:44.422Z,36.47
2024-03-14T14:45:11.766Z,36.58
2024-03-14T14:47:43.087Z,36.49
2024-03-14T14:50:11.232Z,36.83
2024-03-14T14:52:39.010Z,37.13
2024-03-14T14:55:12.975Z,36.64
2024-03-14T14:57:45.112Z,37.28
2024-03-14T15:00:15.389Z,36.87
2024-03-14T15:02:48.640Z,36.42
2024-03-14T15:05:15.524Z,37.03
2024-03-14T15:07:42.664Z,36.51
2024-03-14T15:10:11.780Z,36.41
2024-03-14T15:12:46.767Z,36.41
2024-03-14T15:15:23.900Z,36.46
2024-03-14T15:17:51.355Z,36.29
2024-03-14T15:20:22.189Z,37.04
2024-03-14T15:22:50.153Z,36.16
2024-03-14T15:25:18.092Z,37.13
2024-03-14T15:27:46.179Z,38.24
2024-03-14T15:30:13.713Z,38.12
2024-03-14T15:32:43.533Z,37.89
2024-03-14T15:35:12.518Z,36.47
2024-03-14T15:37:40.121Z,37.20
2024-03-14T15:40:16.795Z,37.59
2024-03-14T15:42:44.804Z,36.24
2024-03-14T15:45:18.312Z,36.59
2024-03-14T15:47:49.697Z,36.34
2024-03-14T15:50:17.821Z,36.77
2024-03-14T15:52:45.755Z,35.96
2024-03-14T15:55:14.198Z,36.02
2024-03-14T15:57:40.896Z,37.21
2024-03-14T16:00:09.672Z,37.53
2024-03-14T16:02:40.042Z,38.06
2024-03-14T16:05:11.465Z,38.18
2024-03-14T16:07:38.133Z,37.72
2024-03-14T16:10:16.856Z,37.51
2024-03-14T16:12:44.316Z,38.02
2024-03-14T16:15:13.700Z,37.38
2024-03-14T16:17:41.034Z,37.58
2024-03-14T16:20:35.074Z,37.94
2024-03-14T16:23:04.630Z,38.08
2024-03-14T16:25:36.163Z,38.83
2024-03-14T16:28:04.568Z,37.96
2024-03-14T16:30:32.148Z,39.55
2024-03-14T16:32:58.955Z,37.73
2024-03-14T16:35:33.870Z,38.19
2024-03-14T16:38:02.964Z,39.14
2024-03-14T16:40:31.084Z,38.51
2024-03-14T16:42:59.762Z,39.99
2024-03-14T16:45:36.052Z,39.88
2024-03-14T16:48:03.842Z,41.73
2024-03-14T16:50:31.872Z,40.42
2024-03-14T16:52:59.174Z,40.34
2024-03-14T16:55:27.478Z,40.74
2024-03-14T16:57:55.270Z,40.91
2024-03-14T17:00:31.835Z,42.19
2024-03-14T17:02:59.658Z,41.10
2024-03-14T17:05:26.452Z,42.17
2024-03-14T17:07:57.164Z,42.31
2024-03-14T17:10:24.788Z,42.78
2024-03-14T17:12:52.490Z,41.63
2024-03-14T17:15:19.715Z,42.08
2024-03-14T17:17:46.788Z,42.30
2024-03-14T17:20:13.995Z,42.25
2024-03-14T17:22:41.125Z,43.20
2024-03-14T17:25:08.504Z,42.64
2024-03-14T17:27:36.035Z,42.61
2024-03-14T17:30:07.311Z,42.25
2024-03-14T17:32:34.732Z,43.36
2024-03-14T17:35:02.306Z,43.00
2024-03-14T17:37:28.815Z,42.08
2024-03-14T17:39:55.641Z,43.25
2024-03-14T17:42:22.149Z,42.89
2024-03-14T17:44:48.659Z,44.74
2024-03-14T17:47:15.122Z,43.35
2024-03-14T17:49:41.714Z,43.84
2024-03-14T17:52:09.500Z,43.49
2024-03-14T17:54:36.144Z,43.92
2024-03-14T17:57:04.054Z,43.16
2024-03-14T17:59:30.627Z,44.73
2024-03-14T18:01:57.642Z,45.16
2024-03-14T18:04:24.202Z,43.62
2024-03-14T18:06:50.765Z,43.62
2024-03-14T18:09:19.005Z,44.17
2024-03-14T18:11:46.490Z,45.13
2024-03-14T18:14:14.625Z,45.51
2024-03-14T18:16:42.483Z,44.76
2024-03-14T18:19:10.314Z,44.82
2024-03-14T18:21:40.207Z,44.86
2024-03-14T18:24:08.333Z,45.50
2024-03-14T18:26:38.329Z,45.48
2024-03-14T18:29:07.320Z,45.05
2024-03-14T18:31:47.866Z,45.76
2024-03-14T18:34:33.511Z,46.02
2024-03-14T18:37:00.482Z,46.07
2024-03-14T18:39:33.234Z,46.57
2024-03-14T18:42:05.959Z,46.73
2024-03-14T18:44:34.012Z,46.64
2024-03-14T18:47:00.696Z,45.67
2024-03-14T18:49:27.321Z,45.51
2024-03-14T18:51:54.999Z,45.49
2024-03-14T18:54:22.104Z,45.69
2024-03-14T18:56:50.996Z,45.80
2024-03-14T18:59:18.836Z,45.39
2024-03-14T19:01:45.433Z,46.39
2024-03-14T19:04:13.543Z,45.70
2024-03-14T19:06:40.094Z,45.10
2024-03-14T19:09:07.224Z,45.83
2024-03-14T19:11:34.084Z,45.76
2024-03-14T19:14:01.382Z,46.12
2024-03-14T19:16:28.026Z,47.58
2024-03-14T19:18:56.270Z,48.61
2024-03-14T19:21:22.955Z,47.60
2024-03-14T19:23:49.646Z,48.08
2024-03-14T19:26:18.171Z,49.62
2024-03-14T19:28:44.670Z,50.61
2024-03-14T19:31:11.907Z,50.03
2024-03-14T19:33:38.620Z,49.84
2024-03-14T19:36:05.383Z,48.71
2024-03-14T19:38:33.251Z,49.59
2024-03-14T19:40:59.750Z,51.35
2024-03-14T19:43:26.264Z,52.06
2024-03-14T19:45:52.898Z,50.67
2024-03-14T19:48:20.447Z,52.62
2024-03-14T19:50:47.805Z,51.58
2024-03-14T19:53:15.097Z,52.41
2024-03-14T19:55:41.651Z,51.88
2024-03-14T19:58:08.580Z,52.58
2024-03-14T20:00:35.218Z,49.76
2024-03-14T20:03:03.298Z,50.25
2024-03-14T20:05:32.957Z,51.89
2024-03-14T20:08:00.027Z,51.39
2024-03-14T20:10:27.631Z,51.59
2024-03-14T20:12:55.188Z,50.86
2024-03-14T20:15:25.751Z,50.83
2024-03-14T20:17:52.539Z,50.47
2024-03-14T20:20:19.324Z,49.93
2024-03-14T20:22:45.770Z,50.87
2024-03-14T20:25:13.507Z,51.23
2024-03-14T20:27:40.508Z,49.91
2024-03-14T20:30:13.686Z,50.12
2024-03-14T20:32:43.168Z,49.90
2024-03-14T20:35:10.145Z,49.44
2024-03-14T20:37:37.795Z,49.55
2024-03-14T20:40:05.594Z,50.33
2024-03-14T20:42:35.586Z,50.53
2024-03-14T20:45:02.299Z,51.20
2024-03-14T20:47:31.984Z,50.71
2024-03-14T20:49:58.618Z,51.34
2024-03-14T20:52:26.774Z,50.88
2024-03-14T20:55:21.312Z,50.41
2024-03-14T20:57:56.839Z,50.19
2024-03-14T21:00:42.488Z,49.95
2024-03-14T21:03:10.025Z,49.83
2024-03-14T21:05:37.550Z,49.60
2024-03-14T21:08:11.205Z,49.16
2024-03-14T21:10:39.061Z,49.08
2024-03-14T21:13:06.279Z,49.21
2024-03-14T21:15:33.055Z,49.31
2024-03-14T21:17:59.767Z,49.62
2024-03-14T21:20:28.307Z,49.28
2024-03-14T21:22:57.069Z,50.17
2024-03-14T21:25:25.669Z,50.34
2024-03-14T21:27:52.433Z,50.40
2024-03-14T21:30:20.307Z,50.73
2024-03-14T21:32:46.963Z,51.04
2024-03-14T21:35:13.822Z,50.09
2024-03-14T21:37:41.292Z,48.91
2024-03-14T21:40:09.268Z,50.18
2024-03-14T21:42:37.564Z,50.82
2024-03-14T21:45:07.704Z,50.46
2024-03-14T21:47:37.981Z,50.55
2024-03-14T21:50:05.218Z,51.50
2024-03-14T21:52:34.437Z,51.32
2024-03-14T21:55:01.775Z,50.77
2024-03-14T21:57:28.363Z,51.56
2024-03-14T21:59:54.908Z,51.31
2024-03-14T22:02:21.925Z,51.01
2024-03-14T22:04:48.453Z,51.52
2024-03-14T22:07:14.974Z,51.27
2024-03-14T22:09:42.127Z,52.91
2024-03-14T22:12:08.741Z,52.65
2024-03-14T22:14:35.275Z,52.25
2024-03-14T22:17:02.017Z,51.73
2024-03-14T22:19:28.635Z,53.17
2024-03-14T22:21:55.561Z,54.79
2024-03-14T22:24:23.342Z,55.41
2024-03-14T22:26:49.867Z,55.01
2024-03-14T22:29:16.793Z,54.56
2024-03-14T22:31:43.560Z,53.46
2024-03-14T22:34:10.151Z,52.95
2024-03-14T22:36:40.122Z,53.66
2024-03-14T22:39:11.085Z,52.68
2024-03-14T22:41:40.751Z,53.81
2024-03-14T22:44:07.319Z,54.24
2024-03-14T22:46:34.220Z,53.04
2024-03-14T22:49:03.630Z,54.30
2024-03-14T22:51:30.191Z,55.35
2024-03-14T22:53:58.177Z,55.30
2024-03-14T22:56:24.671Z,54.11
2024-03-14T22:58:51.407Z,54.17
2024-03-14T23:01:17.973Z,55.85
2024-03-14T23:03:46.068Z,55.88
2024-03-14T23:06:14.910Z,57.01
2024-03-14T23:08:41.419Z,57.50
2024-03-14T23:11:07.975Z,55.83
2024-03-14T23:13:34.581Z,55.20
2024-03-14T23:16:01.530Z,55.05
2024-03-14T23:18:28.255Z,55.34
2024-03-14T23:20:59.565Z,53.31
2024-03-14T23:23:29.308Z,55.16
2024-03-14T23:25:57.265Z,55.57
2024-03-14T23:28:25.952Z,56.32
2024-03-14T23:30:52.646Z,55.68
2024-03-14T23:33:19.337Z,54.19
2024-03-14T23:35:47.661Z,53.77
2024-03-14T23:38:14.338Z,54.41
2024-03-14T23:40:41.178Z,54.24
2024-03-14T23:43:07.791Z,54.19
2024-03-14T23:45:35.620Z,53.38
2024-03-14T23:48:02.987Z,54.14
2024-03-14T23:50:30.252Z,53.25
2024-03-14T23:52:56.968Z,53.83
2024-03-14T23:55:23.831Z,55.17
2024-03-14T23:57:50.625Z,54.19
